createdAt,value
2018-05-07T00:00:46.317Z,89.14
2018-05-07T00:01:46.392Z,88.95
2018-05-07T00:02:46.325Z,89.04
2018-05-07T00:03:46.338Z,89.04
2018-05-07T00:04:46.335Z,89.72
2018-05-07T00:05:46.363Z,89.62
2018-05-07T00:06:46.342Z,90.29
2018-05-07T00:07:46.345Z,90.39
2018-05-07T00:08:46.350Z,90.96
2018-05-07T00:09:46.354Z,90.58
2018-05-07T00:10:46.388Z,91.15
2018-05-07T00:11:46.455Z,90.91
2018-05-07T00:12:46.367Z,92.16
2018-05-07T00:13:46.403Z,91.77
2018-05-07T00:14:46.377Z,91.77
2018-05-07T00:15:46.397Z,92.21
2018-05-07T00:16:46.383Z,91.82
2018-05-07T00:17:46.389Z,92.01
2018-05-07T00:18:46.391Z,92.21
2018-05-07T00:19:46.395Z,92.16
2018-05-07T00:20:46.399Z,92.16
2018-05-07T00:21:46.404Z,91.97
2018-05-07T00:22:46.410Z,92.25
2018-05-07T00:23:46.412Z,92.16
2018-05-07T00:24:46.415Z,92.35
2018-05-07T00:25:46.421Z,92.44
2018-05-07T00:26:46.435Z,92.25
2018-05-07T00:27:46.428Z,92.63
2018-05-07T00:28:46.465Z,93.88
2018-05-07T00:29:46.437Z,93.12
2018-05-07T00:30:46.440Z,93.59
2018-05-07T00:31:46.446Z,93.88
2018-05-07T00:32:46.448Z,93.50
2018-05-07T00:33:46.455Z,94.17
2018-05-07T00:34:46.457Z,94.07
2018-05-07T00:35:46.460Z,94.65
2018-05-07T00:36:46.464Z,94.65
2018-05-07T00:37:46.467Z,95.41
2018-05-07T00:38:46.472Z,95.03
2018-05-07T00:39:46.477Z,95.22
2018-05-07T00:40:46.479Z,95.12
2018-05-07T00:41:46.484Z,95.31
2018-05-07T00:42:46.488Z,95.22
2018-05-07T00:43:46.491Z,95.41
2018-05-07T00:44:46.495Z,96.08
2018-05-07T00:45:46.499Z,95.51
2018-05-07T00:46:46.505Z,96.37
2018-05-07T00:47:46.506Z,95.61
2018-05-07T00:48:46.511Z,96.27
2018-05-07T00:49:46.515Z,95.31
2018-05-07T00:50:46.519Z,95.31
2018-05-07T00:51:46.523Z,95.03
2018-05-07T00:52:46.526Z,94.55
2018-05-07T00:53:46.529Z,94.55
2018-05-07T00:54:46.533Z,93.50
2018-05-07T00:55:46.536Z,93.88
2018-05-07T00:56:46.541Z,94.55
2018-05-07T00:57:46.545Z,94.26
2018-05-07T00:58:46.549Z,94.93
2018-05-07T00:59:46.553Z,96.18
2018-05-07T01:00:46.561Z,96.56
2018-05-07T01:01:46.560Z,96.22
2018-05-07T01:02:46.564Z,97.04
2018-05-07T01:03:46.566Z,97.18
2018-05-07T01:04:46.571Z,96.70
2018-05-07T01:05:46.574Z,97.08
2018-05-07T01:06:46.578Z,97.66
2018-05-07T01:07:46.581Z,97.47
2018-05-07T01:08:46.585Z,97.37
2018-05-07T01:09:46.589Z,98.33
2018-05-07T01:10:46.593Z,98.52
2018-05-07T01:11:46.596Z,99.67
2018-05-07T01:12:46.639Z,99.67
2018-05-07T01:13:46.605Z,99.67
2018-05-07T01:14:46.608Z,99.76
2018-05-07T01:15:46.610Z,99.76
2018-05-07T01:16:46.615Z,99.99
2018-05-07T01:17:46.619Z,99.99
2018-05-07T01:18:46.624Z,99.96
2018-05-07T01:19:46.627Z,99.76
2018-05-07T01:20:46.629Z,99.96
2018-05-07T01:21:46.632Z,99.99
2018-05-07T01:22:46.637Z,99.99
2018-05-07T01:23:46.638Z,99.99
2018-05-07T01:24:46.643Z,99.99
2018-05-07T01:25:46.647Z,99.99
2018-05-07T01:26:46.651Z,99.99
2018-05-07T01:27:46.655Z,99.99
2018-05-07T01:28:46.656Z,99.99
2018-05-07T01:29:46.663Z,99.99
2018-05-07T01:30:46.664Z,99.99
2018-05-07T01:31:46.667Z,99.99
2018-05-07T01:32:46.671Z,99.99
2018-05-07T01:33:46.673Z,99.99
2018-05-07T01:34:46.677Z,99.99
2018-05-07T01:35:46.679Z,99.99
2018-05-07T01:36:46.683Z,99.99
2018-05-07T01:37:46.686Z,99.99
2018-05-07T01:38:46.691Z,99.99
2018-05-07T01:39:46.694Z,99.99
2018-05-07T01:40:46.696Z,99.99
2018-05-07T01:41:46.699Z,99.99
2018-05-07T01:42:46.703Z,99.99
2018-05-07T01:43:46.706Z,99.99
2018-05-07T01:44:46.710Z,99.99
2018-05-07T01:45:46.716Z,99.99
2018-05-07T01:46:46.717Z,99.99
2018-05-07T01:47:46.719Z,99.99
2018-05-07T01:48:46.722Z,99.99
2018-05-07T01:49:46.727Z,99.99
2018-05-07T01:50:46.729Z,99.99
2018-05-07T01:51:46.734Z,99.99
2018-05-07T01:52:46.734Z,99.99
2018-05-07T01:53:46.738Z,99.99
2018-05-07T01:54:46.742Z,99.99
2018-05-07T01:55:46.743Z,99.99
2018-05-07T01:56:46.747Z,99.99
2018-05-07T01:57:46.751Z,99.99
2018-05-07T01:58:46.753Z,99.99
2018-05-07T01:59:46.755Z,99.96
2018-05-07T02:00:46.759Z,99.00
2018-05-07T02:01:46.768Z,98.52
2018-05-07T02:02:46.765Z,98.61
2018-05-07T02:03:46.769Z,98.24
2018-05-07T02:04:46.772Z,97.47
2018-05-07T02:05:46.775Z,97.95
2018-05-07T02:06:46.778Z,97.75
2018-05-07T02:07:46.780Z,97.18
2018-05-07T02:08:46.784Z,97.75
2018-05-07T02:09:46.786Z,96.51
2018-05-07T02:10:46.790Z,96.80
2018-05-07T02:11:46.797Z,96.61
2018-05-07T02:12:46.796Z,96.89
2018-05-07T02:13:46.799Z,97.56
2018-05-07T02:14:46.802Z,96.51
2018-05-07T02:15:46.804Z,95.65
2018-05-07T02:16:46.808Z,95.75
2018-05-07T02:17:46.811Z,95.75
2018-05-07T02:18:46.814Z,94.12
2018-05-07T02:19:46.817Z,93.16
2018-05-07T02:20:46.820Z,93.02
2018-05-07T02:21:46.826Z,93.50
2018-05-07T02:22:46.826Z,92.73
2018-05-07T02:23:46.828Z,93.30
2018-05-07T02:24:46.833Z,93.26
2018-05-07T02:25:46.835Z,93.35
2018-05-07T02:26:46.838Z,94.31
2018-05-07T02:27:46.840Z,94.79
2018-05-07T02:28:46.844Z,95.94
2018-05-07T02:29:46.846Z,96.51
2018-05-07T02:30:46.852Z,96.51
2018-05-07T02:31:46.853Z,96.22
2018-05-07T02:32:46.854Z,96.70
2018-05-07T02:33:46.859Z,96.42
2018-05-07T02:34:46.862Z,96.32
2018-05-07T02:35:46.866Z,96.42
2018-05-07T02:36:46.868Z,95.84
2018-05-07T02:37:46.870Z,96.99
2018-05-07T02:38:46.873Z,96.03
2018-05-07T02:39:46.875Z,95.46
2018-05-07T02:40:46.879Z,94.02
2018-05-07T02:41:46.882Z,94.41
2018-05-07T02:42:46.885Z,94.21
2018-05-07T02:43:46.887Z,93.93
2018-05-07T02:44:46.889Z,94.12
2018-05-07T02:45:46.894Z,94.60
2018-05-07T02:46:46.897Z,94.41
2018-05-07T02:47:46.898Z,95.17
2018-05-07T02:48:46.901Z,95.12
2018-05-07T02:49:46.905Z,94.74
2018-05-07T02:50:46.908Z,94.79
2018-05-07T02:51:46.911Z,95.51
2018-05-07T02:52:46.913Z,94.70
2018-05-07T02:53:46.915Z,93.84
2018-05-07T02:54:46.920Z,94.50
2018-05-07T02:55:46.921Z,94.17
2018-05-07T02:56:46.925Z,94.84
2018-05-07T02:57:46.928Z,94.36
2018-05-07T02:58:46.932Z,95.89
2018-05-07T02:59:46.936Z,96.27
2018-05-07T03:00:46.935Z,96.08
2018-05-07T03:01:47.016Z,95.61
2018-05-07T03:02:46.941Z,95.41
2018-05-07T03:03:46.943Z,95.12
2018-05-07T03:04:46.946Z,95.12
2018-05-07T03:05:46.949Z,93.93
2018-05-07T03:06:46.953Z,93.45
2018-05-07T03:07:46.957Z,93.35
2018-05-07T03:08:46.958Z,93.21
2018-05-07T03:09:46.961Z,93.21
2018-05-07T03:10:46.964Z,93.84
2018-05-07T03:11:46.966Z,93.55
2018-05-07T03:12:46.970Z,93.60
2018-05-07T03:13:46.978Z,94.26
2018-05-07T03:14:46.977Z,94.36
2018-05-07T03:15:46.976Z,95.22
2018-05-07T03:16:46.980Z,95.12
2018-05-07T03:17:46.982Z,95.41
2018-05-07T03:18:46.985Z,95.12
2018-05-07T03:19:46.990Z,95.32
2018-05-07T03:20:46.992Z,95.12
2018-05-07T03:21:46.994Z,95.22
2018-05-07T03:22:46.999Z,94.55
2018-05-07T03:23:46.998Z,94.74
2018-05-07T03:24:47.028Z,94.17
2018-05-07T03:25:47.004Z,93.88
2018-05-07T03:26:47.007Z,94.46
2018-05-07T03:27:47.008Z,94.36
2018-05-07T03:28:47.014Z,94.17
2018-05-07T03:29:47.020Z,93.60
2018-05-07T03:30:47.018Z,93.12
2018-05-07T03:31:47.020Z,92.59
2018-05-07T03:32:47.022Z,92.59
2018-05-07T03:33:47.052Z,92.11
2018-05-07T03:34:47.028Z,92.25
2018-05-07T03:35:47.029Z,92.69
2018-05-07T03:36:47.033Z,92.35
2018-05-07T03:37:47.035Z,92.78
2018-05-07T03:38:47.038Z,92.64
2018-05-07T03:39:47.040Z,92.02
2018-05-07T03:40:47.044Z,92.54
2018-05-07T03:41:47.047Z,93.12
2018-05-07T03:42:47.048Z,93.02
2018-05-07T03:43:47.050Z,93.40
2018-05-07T03:44:47.056Z,93.79
2018-05-07T03:45:47.057Z,93.31
2018-05-07T03:46:47.059Z,93.02
2018-05-07T03:47:47.060Z,93.88
2018-05-07T03:48:47.075Z,93.79
2018-05-07T03:49:47.066Z,93.88
2018-05-07T03:50:47.069Z,94.17
2018-05-07T03:51:47.071Z,93.50
2018-05-07T03:52:47.074Z,93.21
2018-05-07T03:53:47.076Z,93.60
2018-05-07T03:54:47.079Z,93.21
2018-05-07T03:55:47.081Z,92.45
2018-05-07T03:56:47.085Z,91.88
2018-05-07T03:57:47.086Z,91.97
2018-05-07T03:58:47.094Z,92.74
2018-05-07T03:59:47.123Z,92.54
2018-05-07T04:00:47.093Z,91.78
2018-05-07T04:01:47.097Z,92.54
2018-05-07T04:02:47.099Z,92.64
2018-05-07T04:03:47.101Z,93.50
2018-05-07T04:04:47.103Z,93.31
2018-05-07T04:05:47.106Z,91.88
2018-05-07T04:06:47.108Z,92.35
2018-05-07T04:07:47.110Z,91.78
2018-05-07T04:08:47.113Z,91.49
2018-05-07T04:09:47.116Z,92.07
2018-05-07T04:10:47.119Z,92.07
2018-05-07T04:11:47.121Z,91.88
2018-05-07T04:12:47.124Z,91.97
2018-05-07T04:13:47.125Z,92.07
2018-05-07T04:14:47.129Z,91.88
2018-05-07T04:15:47.131Z,91.78
2018-05-07T04:16:47.133Z,91.11
2018-05-07T04:17:47.135Z,92.07
2018-05-07T04:18:47.141Z,92.35
2018-05-07T04:19:47.138Z,90.82
2018-05-07T04:20:47.143Z,90.06
2018-05-07T04:21:47.151Z,89.87
2018-05-07T04:22:47.147Z,90.16
2018-05-07T04:23:47.149Z,90.34
2018-05-07T04:24:47.152Z,90.53
2018-05-07T04:25:47.155Z,91.30
2018-05-07T04:26:47.157Z,90.73
2018-05-07T04:27:47.159Z,90.92
2018-05-07T04:28:47.162Z,91.30
2018-05-07T04:29:47.165Z,91.97
2018-05-07T04:30:47.167Z,91.78
2018-05-07T04:31:47.169Z,91.97
2018-05-07T04:32:47.172Z,91.39
2018-05-07T04:33:47.188Z,91.78
2018-05-07T04:34:47.177Z,90.73
2018-05-07T04:35:47.178Z,90.16
2018-05-07T04:36:47.181Z,89.96
2018-05-07T04:37:47.184Z,89.29
2018-05-07T04:38:47.187Z,87.95
2018-05-07T04:39:47.188Z,88.81
2018-05-07T04:40:47.191Z,87.66
2018-05-07T04:41:47.193Z,88.43
2018-05-07T04:42:47.196Z,88.53
2018-05-07T04:43:47.199Z,88.43
2018-05-07T04:44:47.201Z,88.53
2018-05-07T04:45:47.203Z,88.43
2018-05-07T04:46:47.207Z,87.66
2018-05-07T04:47:47.206Z,87.86
2018-05-07T04:48:47.213Z,87.76
2018-05-07T04:49:47.213Z,88.34
2018-05-07T04:50:47.216Z,88.24
2018-05-07T04:51:47.217Z,88.24
2018-05-07T04:52:47.221Z,87.29
2018-05-07T04:53:47.223Z,86.80
2018-05-07T04:54:47.226Z,86.47
2018-05-07T04:55:47.227Z,86.28
2018-05-07T04:56:47.230Z,86.66
2018-05-07T04:57:47.234Z,86.80
2018-05-07T04:58:47.236Z,87.14
2018-05-07T04:59:47.243Z,86.90
2018-05-07T05:00:47.240Z,86.37
2018-05-07T05:01:47.243Z,86.47
2018-05-07T05:02:47.246Z,85.61
2018-05-07T05:03:47.248Z,86.18
2018-05-07T05:04:47.250Z,85.41
2018-05-07T05:05:47.253Z,85.61
2018-05-07T05:06:47.256Z,86.57
2018-05-07T05:07:47.257Z,85.51
2018-05-07T05:08:47.261Z,84.55
2018-05-07T05:09:47.264Z,84.84
2018-05-07T05:10:47.266Z,85.51
2018-05-07T05:11:47.268Z,83.50
2018-05-07T05:12:47.272Z,83.26
2018-05-07T05:13:47.273Z,82.30
2018-05-07T05:14:47.277Z,83.45
2018-05-07T05:15:47.279Z,84.50
2018-05-07T05:16:47.282Z,84.31
2018-05-07T05:17:47.284Z,83.83
2018-05-07T05:18:47.287Z,83.45
2018-05-07T05:19:47.289Z,83.54
2018-05-07T05:20:47.292Z,82.11
2018-05-07T05:21:47.295Z,82.87
2018-05-07T05:22:47.297Z,83.06
2018-05-07T05:23:47.301Z,83.36
2018-05-07T05:24:47.303Z,82.97
2018-05-07T05:25:47.305Z,82.20
2018-05-07T05:26:47.309Z,82.49
2018-05-07T05:27:47.312Z,82.59
2018-05-07T05:28:47.314Z,82.20
2018-05-07T05:29:47.315Z,82.30
2018-05-07T05:30:47.319Z,82.97
2018-05-07T05:31:47.321Z,83.36
2018-05-07T05:32:47.324Z,82.11
2018-05-07T05:33:47.327Z,81.44
2018-05-07T05:34:47.330Z,82.20
2018-05-07T05:35:47.333Z,82.97
2018-05-07T05:36:47.334Z,82.49
2018-05-07T05:37:47.340Z,82.59
2018-05-07T05:38:47.345Z,82.40
2018-05-07T05:39:47.344Z,82.78
2018-05-07T05:40:47.352Z,82.97
2018-05-07T05:41:47.350Z,82.63
2018-05-07T05:42:47.353Z,82.68
2018-05-07T05:43:47.372Z,82.82
2018-05-07T05:44:47.360Z,82.68
2018-05-07T05:45:47.362Z,83.26
2018-05-07T05:46:47.365Z,83.01
2018-05-07T05:47:47.367Z,83.30
2018-05-07T05:48:47.371Z,83.59
2018-05-07T05:49:47.374Z,83.20
2018-05-07T05:50:47.377Z,83.01
2018-05-07T05:51:47.379Z,82.92
2018-05-07T05:52:47.383Z,82.43
2018-05-07T05:53:47.386Z,82.34
2018-05-07T05:54:47.389Z,82.53
2018-05-07T05:55:47.392Z,82.15
2018-05-07T05:56:47.395Z,82.53
2018-05-07T05:57:47.399Z,82.06
2018-05-07T05:58:47.403Z,81.77
2018-05-07T05:59:47.404Z,80.90
2018-05-07T06:00:47.407Z,80.90
2018-05-07T06:01:47.410Z,80.94
2018-05-07T06:02:47.414Z,80.85
2018-05-07T06:03:47.458Z,79.60
2018-05-07T06:04:47.419Z,80.27
2018-05-07T06:05:47.425Z,80.37
2018-05-07T06:06:47.428Z,80.47
2018-05-07T06:07:47.431Z,80.76
2018-05-07T06:08:47.435Z,79.80
2018-05-07T06:09:47.438Z,79.32
2018-05-07T06:10:47.442Z,79.60
2018-05-07T06:11:47.443Z,79.51
2018-05-07T06:12:47.447Z,79.80
2018-05-07T06:13:47.452Z,79.03
2018-05-07T06:14:47.558Z,77.78
2018-05-07T06:15:47.457Z,77.59
2018-05-07T06:16:47.462Z,78.27
2018-05-07T06:17:47.465Z,78.27
2018-05-07T06:18:47.469Z,79.13
2018-05-07T06:19:47.471Z,79.03
2018-05-07T06:20:47.476Z,79.32
2018-05-07T06:21:47.478Z,79.13
2018-05-07T06:22:47.484Z,78.84
2018-05-07T06:23:47.486Z,78.84
2018-05-07T06:24:47.490Z,78.97
2018-05-07T06:25:47.494Z,77.53
2018-05-07T06:26:47.496Z,77.78
2018-05-07T06:27:47.498Z,78.11
2018-05-07T06:28:47.503Z,78.11
2018-05-07T06:29:47.507Z,76.57
2018-05-07T06:30:47.518Z,77.82
2018-05-07T06:31:47.518Z,77.53
2018-05-07T06:32:47.521Z,77.53
2018-05-07T06:33:47.522Z,78.02
2018-05-07T06:34:47.526Z,77.63
2018-05-07T06:35:47.529Z,76.39
2018-05-07T06:36:47.536Z,76.48
2018-05-07T06:37:47.537Z,76.57
2018-05-07T06:38:47.541Z,77.25
2018-05-07T06:39:47.544Z,76.00
2018-05-07T06:40:47.548Z,76.10
2018-05-07T06:41:47.552Z,75.46
2018-05-07T06:42:47.555Z,75.62
2018-05-07T06:43:47.560Z,76.04
2018-05-07T06:44:47.563Z,76.81
2018-05-07T06:45:47.649Z,76.04
2018-05-07T06:46:47.572Z,76.23
2018-05-07T06:47:47.575Z,76.04
2018-05-07T06:48:47.586Z,75.56
2018-05-07T06:49:47.587Z,74.02
2018-05-07T06:50:47.591Z,73.35
2018-05-07T06:51:47.592Z,72.78
2018-05-07T06:52:47.596Z,71.82
2018-05-07T06:53:47.602Z,72.39
2018-05-07T06:54:47.605Z,71.44
2018-05-07T06:55:47.607Z,72.24
2018-05-07T06:56:47.612Z,71.37
2018-05-07T06:57:47.616Z,70.70
2018-05-07T06:58:47.623Z,71.19
2018-05-07T06:59:47.624Z,70.51
2018-05-07T07:00:47.629Z,70.90
2018-05-07T07:01:47.634Z,70.70
2018-05-07T07:02:47.699Z,70.13
2018-05-07T07:03:47.645Z,69.26
2018-05-07T07:04:47.647Z,68.79
2018-05-07T07:05:47.650Z,69.46
2018-05-07T07:06:47.654Z,69.65
2018-05-07T07:07:47.660Z,69.93
2018-05-07T07:08:47.663Z,69.84
2018-05-07T07:09:47.667Z,70.36
2018-05-07T07:10:47.672Z,69.87
2018-05-07T07:11:47.682Z,69.68
2018-05-07T07:12:47.686Z,69.30
2018-05-07T07:13:47.685Z,69.20
2018-05-07T07:14:47.692Z,68.15
2018-05-07T07:15:47.693Z,68.24
2018-05-07T07:16:47.699Z,68.34
2018-05-07T07:17:47.703Z,68.15
2018-05-07T07:18:47.707Z,68.66
2018-05-07T07:19:47.718Z,69.78
2018-05-07T07:20:47.722Z,69.62
2018-05-07T07:21:47.799Z,70.20
2018-05-07T07:22:47.727Z,69.34
2018-05-07T07:23:47.730Z,69.34
2018-05-07T07:24:47.735Z,69.53
2018-05-07T07:25:47.742Z,69.05
2018-05-07T07:26:47.745Z,69.34
2018-05-07T07:27:47.749Z,69.05
2018-05-07T07:28:47.753Z,69.72
2018-05-07T07:29:47.761Z,69.56
2018-05-07T07:30:47.764Z,69.43
2018-05-07T07:31:47.768Z,69.46
2018-05-07T07:32:47.774Z,66.97
2018-05-07T07:33:47.865Z,67.25
2018-05-07T07:34:47.786Z,66.97
2018-05-07T07:35:47.791Z,66.30
2018-05-07T07:36:47.793Z,66.20
2018-05-07T07:37:47.801Z,65.23
2018-05-07T07:38:47.804Z,65.72
2018-05-07T07:39:47.808Z,64.89
2018-05-07T07:40:47.814Z,62.10
2018-05-07T07:41:47.820Z,61.33
2018-05-07T07:42:47.825Z,62.26
2018-05-07T07:43:47.829Z,63.25
2018-05-07T07:44:47.834Z,62.96
2018-05-07T07:45:47.840Z,62.96
2018-05-07T07:46:47.846Z,61.61
2018-05-07T07:47:47.851Z,63.06
2018-05-07T07:48:47.856Z,62.29
2018-05-07T07:49:47.862Z,61.65
2018-05-07T07:50:47.867Z,60.97
2018-05-07T07:51:47.871Z,61.36
2018-05-07T07:52:47.886Z,61.39
2018-05-07T07:53:47.899Z,59.88
2018-05-07T07:54:47.890Z,58.27
2018-05-07T07:55:47.896Z,56.11
2018-05-07T07:56:47.904Z,53.17
2018-05-07T07:57:47.911Z,51.68
2018-05-07T07:58:47.920Z,50.21
2018-05-07T07:59:47.927Z,48.97
2018-05-07T08:00:47.937Z,48.42
2018-05-07T08:01:47.948Z,47.84
2018-05-07T08:02:47.958Z,47.89
2018-05-07T08:03:47.968Z,46.26
2018-05-07T08:04:47.981Z,45.59
2018-05-07T08:05:47.991Z,45.18
2018-05-07T08:06:48.003Z,44.84
2018-05-07T08:07:48.017Z,43.62
2018-05-07T08:08:48.035Z,44.47
2018-05-07T08:09:48.046Z,44.37
2018-05-07T08:10:48.055Z,43.87
2018-05-07T08:11:48.070Z,43.06
2018-05-07T08:12:48.083Z,41.97
2018-05-07T08:13:48.098Z,43.02
2018-05-07T08:14:48.112Z,43.02
2018-05-07T08:15:48.126Z,42.80
2018-05-07T08:16:48.141Z,44.70
2018-05-07T08:17:48.158Z,44.47
2018-05-07T08:18:48.171Z,43.70
2018-05-07T08:19:48.184Z,43.79
2018-05-07T08:20:48.199Z,42.85
2018-05-07T08:21:48.215Z,42.19
2018-05-07T08:22:48.229Z,41.31
2018-05-07T08:23:48.244Z,40.79
2018-05-07T08:24:48.323Z,40.77
2018-05-07T08:25:48.274Z,41.14
2018-05-07T08:26:48.295Z,41.63
2018-05-07T08:27:48.305Z,40.92
2018-05-07T08:28:48.321Z,41.16
2018-05-07T08:29:48.337Z,39.90
2018-05-07T08:30:48.353Z,39.72
2018-05-07T08:31:48.369Z,39.72
2018-05-07T08:32:48.385Z,39.62
2018-05-07T08:33:48.401Z,40.26
2018-05-07T08:34:48.419Z,41.78
2018-05-07T08:35:48.434Z,41.61
2018-05-07T08:36:48.464Z,40.95
2018-05-07T08:37:48.466Z,41.58
2018-05-07T08:38:48.483Z,41.72
2018-05-07T08:39:48.498Z,40.50
2018-05-07T08:40:48.515Z,40.62
2018-05-07T08:41:48.532Z,40.52
2018-05-07T08:42:48.550Z,39.00
2018-05-07T08:43:48.565Z,38.07
2018-05-07T08:44:48.581Z,36.74
2018-05-07T08:45:48.599Z,37.77
2018-05-07T08:46:48.615Z,38.28
2018-05-07T08:47:48.634Z,35.94
2018-05-07T08:48:48.650Z,35.65
2018-05-07T08:49:48.667Z,35.47
2018-05-07T08:50:48.701Z,37.02
2018-05-07T08:51:48.701Z,38.87
2018-05-07T08:52:48.750Z,37.72
2018-05-07T08:53:48.736Z,37.08
2018-05-07T08:54:48.753Z,37.08
2018-05-07T08:55:48.770Z,36.47
2018-05-07T08:56:48.786Z,36.14
2018-05-07T08:57:48.804Z,34.52
2018-05-07T08:58:48.821Z,34.63
2018-05-07T08:59:48.839Z,35.30
2018-05-07T09:00:48.859Z,34.47
2018-05-07T09:01:48.876Z,35.97
2018-05-07T09:02:48.893Z,38.15
2018-05-07T09:03:48.909Z,39.98
2018-05-07T09:04:48.928Z,40.26
2018-05-07T09:05:48.945Z,40.87
2018-05-07T09:06:48.962Z,39.24
2018-05-07T09:07:48.980Z,39.16
2018-05-07T09:08:48.997Z,37.70
2018-05-07T09:09:49.019Z,37.52
2018-05-07T09:10:49.034Z,36.79
2018-05-07T09:11:49.052Z,36.57
2018-05-07T09:12:49.069Z,36.40
2018-05-07T09:13:49.087Z,35.91
2018-05-07T09:14:49.105Z,35.13
2018-05-07T09:15:49.123Z,35.26
2018-05-07T09:16:49.141Z,35.26
2018-05-07T09:17:49.158Z,35.65
2018-05-07T09:18:49.175Z,34.56
2018-05-07T09:19:49.192Z,35.33
2018-05-07T09:20:49.211Z,35.55
2018-05-07T09:21:49.228Z,35.47
2018-05-07T09:22:49.246Z,36.02
2018-05-07T09:23:49.263Z,36.06
2018-05-07T09:24:49.335Z,35.16
2018-05-07T09:25:49.299Z,34.66
2018-05-07T09:26:49.317Z,35.03
2018-05-07T09:27:49.335Z,36.87
2018-05-07T09:28:49.354Z,36.40
2018-05-07T09:29:49.371Z,36.38
2018-05-07T09:30:49.389Z,37.64
2018-05-07T09:31:49.407Z,36.20
2018-05-07T09:32:49.425Z,35.97
2018-05-07T09:33:49.446Z,36.54
2018-05-07T09:34:49.467Z,36.42
2018-05-07T09:35:49.478Z,37.20
2018-05-07T09:36:49.497Z,37.02
2018-05-07T09:37:49.515Z,35.60
2018-05-07T09:38:49.533Z,36.08
2018-05-07T09:39:49.552Z,36.57
2018-05-07T09:40:49.569Z,35.74
2018-05-07T09:41:49.587Z,38.23
2018-05-07T09:42:49.605Z,38.25
2018-05-07T09:43:49.622Z,37.66
2018-05-07T09:44:49.641Z,37.07
2018-05-07T09:45:49.659Z,38.62
2018-05-07T09:46:49.678Z,37.70
2018-05-07T09:47:49.694Z,35.89
2018-05-07T09:48:49.712Z,35.11
2018-05-07T09:49:49.730Z,35.16
2018-05-07T09:50:49.748Z,33.73
2018-05-07T09:51:49.765Z,33.26
2018-05-07T09:52:49.782Z,32.08
2018-05-07T09:53:49.800Z,33.51
2018-05-07T09:54:49.817Z,32.53
2018-05-07T09:55:49.834Z,33.38
2018-05-07T09:56:49.920Z,33.88
2018-05-07T09:57:49.869Z,33.39
2018-05-07T09:58:49.891Z,33.49
2018-05-07T09:59:49.905Z,33.49
2018-05-07T10:00:49.922Z,33.48
2018-05-07T10:01:49.940Z,33.77
2018-05-07T10:02:49.958Z,33.48
2018-05-07T10:03:49.974Z,32.99
2018-05-07T10:04:49.996Z,33.39
2018-05-07T10:05:50.009Z,32.32
2018-05-07T10:06:50.028Z,32.70
2018-05-07T10:07:50.043Z,33.26
2018-05-07T10:08:50.063Z,35.08
2018-05-07T10:09:50.078Z,36.24
2018-05-07T10:10:50.096Z,36.32
2018-05-07T10:11:50.112Z,36.83
2018-05-07T10:12:50.130Z,36.55
2018-05-07T10:13:50.147Z,35.80
2018-05-07T10:14:50.165Z,35.13
2018-05-07T10:15:50.181Z,35.36
2018-05-07T10:16:50.200Z,35.31
2018-05-07T10:17:50.218Z,34.56
2018-05-07T10:18:50.236Z,32.75
2018-05-07T10:19:50.249Z,33.99
2018-05-07T10:20:50.266Z,34.61
2018-05-07T10:21:50.284Z,33.18
2018-05-07T10:22:50.300Z,31.85
2018-05-07T10:23:50.316Z,31.66
2018-05-07T10:24:50.334Z,32.06
2018-05-07T10:25:50.350Z,31.67
2018-05-07T10:26:50.367Z,32.43
2018-05-07T10:27:50.383Z,31.87
2018-05-07T10:28:50.400Z,31.57
2018-05-07T10:29:50.431Z,31.67
2018-05-07T10:30:50.440Z,31.57
2018-05-07T10:31:50.450Z,31.20
2018-05-07T10:32:50.466Z,31.20
2018-05-07T10:33:50.483Z,31.06
2018-05-07T10:34:50.508Z,31.93
2018-05-07T10:35:50.515Z,32.99
2018-05-07T10:36:50.533Z,32.47
2018-05-07T10:37:50.548Z,33.81
2018-05-07T10:38:50.565Z,35.35
2018-05-07T10:39:50.580Z,35.14
2018-05-07T10:40:50.597Z,35.43
2018-05-07T10:41:50.612Z,35.47
2018-05-07T10:42:50.713Z,35.14
2018-05-07T10:43:50.645Z,35.35
2018-05-07T10:44:50.666Z,33.65
2018-05-07T10:45:50.678Z,32.89
2018-05-07T10:46:50.694Z,32.03
2018-05-07T10:47:50.709Z,32.15
2018-05-07T10:48:50.724Z,31.95
2018-05-07T10:49:50.740Z,31.93
2018-05-07T10:50:50.756Z,30.46
2018-05-07T10:51:50.773Z,31.41
2018-05-07T10:52:50.788Z,31.70
2018-05-07T10:53:50.803Z,32.28
2018-05-07T10:54:50.819Z,31.53
2018-05-07T10:55:50.835Z,30.87
2018-05-07T10:56:50.849Z,31.22
2018-05-07T10:57:50.864Z,31.71
2018-05-07T10:58:50.881Z,33.15
2018-05-07T10:59:50.896Z,31.97
2018-05-07T11:00:50.911Z,31.71
2018-05-07T11:01:50.927Z,31.03
2018-05-07T11:02:50.943Z,30.25
2018-05-07T11:03:50.958Z,29.93
2018-05-07T11:04:50.972Z,29.16
2018-05-07T11:05:50.987Z,30.02
2018-05-07T11:06:51.003Z,30.30
2018-05-07T11:07:51.019Z,32.12
2018-05-07T11:08:51.031Z,33.25
2018-05-07T11:09:51.048Z,34.59
2018-05-07T11:10:51.061Z,35.77
2018-05-07T11:11:51.074Z,35.36
2018-05-07T11:12:51.090Z,35.85
2018-05-07T11:13:51.104Z,35.75
2018-05-07T11:14:51.118Z,36.62
2018-05-07T11:15:51.132Z,36.44
2018-05-07T11:16:51.145Z,36.52
2018-05-07T11:17:51.159Z,35.38
2018-05-07T11:18:51.173Z,34.41
2018-05-07T11:19:51.243Z,34.70
2018-05-07T11:20:51.198Z,34.89
2018-05-07T11:21:51.212Z,34.91
2018-05-07T11:22:51.224Z,35.40
2018-05-07T11:23:51.237Z,34.93
2018-05-07T11:24:51.250Z,35.13
2018-05-07T11:25:51.263Z,35.22
2018-05-07T11:26:51.279Z,34.93
2018-05-07T11:27:51.287Z,35.90
2018-05-07T11:28:51.300Z,36.00
2018-05-07T11:29:51.312Z,33.96
2018-05-07T11:30:51.324Z,32.97
2018-05-07T11:31:51.336Z,33.62
2018-05-07T11:32:51.348Z,35.66
2018-05-07T11:33:51.360Z,35.46
2018-05-07T11:34:51.375Z,35.25
2018-05-07T11:35:51.389Z,35.54
2018-05-07T11:36:51.399Z,36.14
2018-05-07T11:37:51.408Z,35.64
2018-05-07T11:38:51.419Z,35.44
2018-05-07T11:39:51.428Z,36.22
2018-05-07T11:40:51.440Z,36.60
2018-05-07T11:41:51.452Z,36.70
2018-05-07T11:42:51.464Z,37.19
2018-05-07T11:43:51.474Z,37.09
2018-05-07T11:44:51.484Z,37.09
2018-05-07T11:45:51.496Z,38.25
2018-05-07T11:46:51.508Z,37.57
2018-05-07T11:47:51.517Z,36.90
2018-05-07T11:48:51.528Z,36.12
2018-05-07T11:49:51.539Z,36.80
2018-05-07T11:50:51.550Z,37.57
2018-05-07T11:51:51.561Z,36.58
2018-05-07T11:52:51.572Z,36.80
2018-05-07T11:53:51.585Z,37.48
2018-05-07T11:54:51.593Z,37.87
2018-05-07T11:55:51.603Z,38.25
2018-05-07T11:56:51.613Z,38.83
2018-05-07T11:57:51.623Z,37.87
2018-05-07T11:58:51.634Z,38.25
2018-05-07T11:59:51.643Z,37.48
2018-05-07T12:00:51.654Z,37.19
2018-05-07T12:01:51.665Z,37.96
2018-05-07T12:02:51.677Z,37.21
2018-05-07T12:03:51.684Z,36.62
2018-05-07T12:04:51.696Z,35.56
2018-05-07T12:05:51.705Z,35.56
2018-05-07T12:06:51.716Z,35.56
2018-05-07T12:07:51.725Z,35.15
2018-05-07T12:08:51.736Z,35.73
2018-05-07T12:09:51.746Z,35.54
2018-05-07T12:10:51.755Z,35.15
2018-05-07T12:11:51.765Z,34.96
2018-05-07T12:12:51.775Z,35.07
2018-05-07T12:13:51.786Z,36.04
2018-05-07T12:14:51.796Z,36.82
2018-05-07T12:15:51.901Z,37.30
2018-05-07T12:16:51.815Z,36.91
2018-05-07T12:17:51.825Z,36.70
2018-05-07T12:18:51.834Z,37.77
2018-05-07T12:19:51.845Z,38.95
2018-05-07T12:20:51.855Z,37.48
2018-05-07T12:21:51.865Z,37.38
2018-05-07T12:22:51.876Z,37.87
2018-05-07T12:23:51.888Z,37.19
2018-05-07T12:24:51.895Z,37.28
2018-05-07T12:25:51.903Z,37.48
2018-05-07T12:26:51.915Z,37.21
2018-05-07T12:27:51.924Z,37.01
2018-05-07T12:28:51.934Z,36.24
2018-05-07T12:29:51.944Z,35.64
2018-05-07T12:30:51.955Z,36.04
2018-05-07T12:31:52.009Z,36.02
2018-05-07T12:32:51.974Z,35.27
2018-05-07T12:33:51.984Z,36.14
2018-05-07T12:34:51.996Z,35.36
2018-05-07T12:35:52.002Z,35.17
2018-05-07T12:36:52.012Z,35.07
2018-05-07T12:37:52.023Z,36.24
2018-05-07T12:38:52.032Z,36.33
2018-05-07T12:39:52.042Z,35.94
2018-05-07T12:40:52.052Z,36.44
2018-05-07T12:41:52.060Z,35.48
2018-05-07T12:42:52.071Z,36.35
2018-05-07T12:43:52.080Z,34.80
2018-05-07T12:44:52.090Z,34.41
2018-05-07T12:45:52.101Z,35.27
2018-05-07T12:46:52.163Z,35.28
2018-05-07T12:47:52.123Z,35.48
2018-05-07T12:48:52.128Z,34.99
2018-05-07T12:49:52.139Z,33.64
2018-05-07T12:50:52.148Z,34.31
2018-05-07T12:51:52.161Z,34.49
2018-05-07T12:52:52.167Z,34.59